Time;durP1;ratioP1;P1;durP2;ratioP2;P2;SDS_P1;SDS_P2;PMS_P1;PMS_P2;Temp;Humidity;BMP_temperature;BMP_pressure;BME280_temperature;BME280_humidity;BME280_pressure;Samples;Min_cycle;Max_cycle;Signal;HPM_P1;HPM_P2
2023/05/23 00:02:12;;;;;;;2.35;2.17;;;;;;;;;;7405710;19;20156;-90
2023/05/23 00:04:38;;;;;;;1.42;1.33;;;;;;;;;;7401681;19;20140;-91
2023/05/23 00:07:05;;;;;;;2.00;1.02;;;;;;;;;;7410788;19;20200;-89
2023/05/23 00:09:32;;;;;;;1.48;1.40;;;;;;;;;;7409292;19;20181;-89
2023/05/23 00:11:59;;;;;;;2.15;2.03;;;;;;;;;;7403021;19;20156;-89
2023/05/23 00:14:26;;;;;;;1.60;1.50;;;;;;;;;;7403424;19;20161;-91
2023/05/23 00:16:53;;;;;;;0.90;0.90;;;;;;;;;;7400822;19;20493;-89
2023/05/23 00:19:20;;;;;;;1.45;1.35;;;;;;;;;;7399723;19;20600;-89
2023/05/23 00:21:47;;;;;;;1.35;1.25;;;;;;;;;;7399427;19;20155;-89
2023/05/23 00:24:21;;;;;;;1.00;1.00;;;;;;;;;;7402936;19;20145;-90
2023/05/23 00:26:48;;;;;;;0.90;0.90;;;;;;;;;;7405182;19;20623;-90
2023/05/23 00:29:16;;;;;;;3.22;2.15;;;;;;;;;;7409195;19;20173;-90
2023/05/23 00:31:46;;;;;;;7.35;2.22;;;;;;;;;;7406262;19;20164;-90
2023/05/23 00:34:16;;;;;;;2.05;1.88;;;;;;;;;;7407797;19;20144;-89
2023/05/23 00:36:49;;;;;;;1.05;0.98;;;;;;;;;;7400926;19;20631;-90
2023/05/23 00:39:19;;;;;;;1.33;1.30;;;;;;;;;;7401083;19;20528;-89
2023/05/23 00:41:50;;;;;;;1.55;1.45;;;;;;;;;;7407439;19;20164;-89
2023/05/23 00:44:19;;;;;;;1.35;1.25;;;;;;;;;;7402290;19;20162;-89
2023/05/23 00:46:50;;;;;;;1.30;1.23;;;;;;;;;;7401806;19;20604;-89
2023/05/23 00:49:18;;;;;;;1.42;1.33;;;;;;;;;;7400257;19;20642;-89
2023/05/23 00:51:48;;;;;;;1.35;1.27;;;;;;;;;;7395678;19;20605;-90
2023/05/23 00:54:17;;;;;;;1.10;1.10;;;;;;;;;;7397701;19;20137;-89
2023/05/23 00:56:44;;;;;;;2.22;1.40;;;;;;;;;;7399445;19;20177;-89
2023/05/23 00:59:11;;;;;;;1.50;1.40;;;;;;;;;;7402150;19;20161;-89
2023/05/23 01:01:39;;;;;;;1.27;1.17;;;;;;;;;;7407425;19;20140;-89
2023/05/23 01:04:06;;;;;;;1.15;1.15;;;;;;;;;;7408841;19;20155;-89
2023/05/23 01:06:33;;;;;;;1.50;1.40;;;;;;;;;;7414292;19;20144;-89
2023/05/23 01:09:01;;;;;;;0.98;0.98;;;;;;;;;;7416618;19;20164;-89
2023/05/23 01:11:34;;;;;;;1.20;1.15;;;;;;;;;;7429151;19;20125;-89
2023/05/23 01:14:10;;;;;;;1.05;1.05;;;;;;;;;;7427640;19;20158;-90
2023/05/23 01:16:47;;;;;;;0.85;0.85;;;;;;;;;;7432870;19;20124;-92
2023/05/23 01:19:39;;;;;;;1.58;1.48;;;;;;;;;;7423742;19;20152;-89
2023/05/23 01:22:18;;;;;;;1.77;1.67;;;;;;;;;;7409158;19;20137;-89
2023/05/23 01:24:56;;;;;;;0.95;0.95;;;;;;;;;;7405978;19;20129;-90
2023/05/23 01:27:45;;;;;;;0.70;0.70;;;;;;;;;;7404824;19;20129;-91
2023/05/23 01:30:12;;;;;;;0.68;0.68;;;;;;;;;;7407650;19;20204;-91
2023/05/23 01:32:39;;;;;;;1.75;1.35;;;;;;;;;;7406532;19;20184;-90
2023/05/23 01:35:06;;;;;;;1.63;1.10;;;;;;;;;;7404599;19;20512;-92
2023/05/23 01:37:33;;;;;;;1.17;1.08;;;;;;;;;;7405750;19;20482;-87
2023/05/23 01:39:59;;;;;;;1.67;1.58;;;;;;;;;;7406745;19;20174;-91
2023/05/23 01:42:27;;;;;;;1.23;1.23;;;;;;;;;;7406787;19;20141;-89
2023/05/23 01:44:54;;;;;;;1.60;1.50;;;;;;;;;;7407069;19;20494;-90
2023/05/23 01:47:21;;;;;;;0.98;0.98;;;;;;;;;;7409430;19;20598;-91
2023/05/23 01:49:48;;;;;;;1.20;1.10;;;;;;;;;;7405596;19;20156;-90
2023/05/23 01:52:15;;;;;;;1.63;1.52;;;;;;;;;;7405973;19;20176;-90
2023/05/23 01:54:42;;;;;;;1.23;1.17;;;;;;;;;;7405493;19;20140;-91
2023/05/23 01:57:09;;;;;;;0.80;0.80;;;;;;;;;;7404637;19;20613;-89
2023/05/23 01:59:37;;;;;;;1.73;1.63;;;;;;;;;;7403869;19;20156;-90
2023/05/23 02:02:04;;;;;;;0.75;0.75;;;;;;;;;;7407884;19;20139;-90
2023/05/23 02:04:31;;;;;;;0.60;0.60;;;;;;;;;;7400992;19;20476;-91
2023/05/23 02:06:58;;;;;;;2.00;1.30;;;;;;;;;;7406590;19;20141;-90
2023/05/23 02:09:24;;;;;;;0.98;0.98;;;;;;;;;;7401518;19;20160;-90
2023/05/23 02:11:51;;;;;;;1.20;1.20;;;;;;;;;;7402588;19;20141;-91
2023/05/23 02:14:18;;;;;;;1.05;1.02;;;;;;;;;;7402383;19;20147;-90
2023/05/23 02:16:45;;;;;;;1.08;0.98;;;;;;;;;;7406226;19;20137;-89
2023/05/23 02:19:11;;;;;;;1.58;1.48;;;;;;;;;;7404342;19;20173;-88
2023/05/23 02:21:38;;;;;;;1.23;1.17;;;;;;;;;;7407172;19;20137;-91
2023/05/23 02:24:05;;;;;;;1.48;1.38;;;;;;;;;;7404181;19;20125;-90
2023/05/23 02:26:31;;;;;;;1.27;1.00;;;;;;;;;;7405982;19;20135;-89
2023/05/23 02:28:58;;;;;;;1.42;1.38;;;;;;;;;;7400619;19;20157;-91
2023/05/23 02:31:25;;;;;;;2.17;2.03;;;;;;;;;;7405145;19;20149;-91
2023/05/23 02:33:52;;;;;;;1.27;1.17;;;;;;;;;;7404491;19;20141;-91
2023/05/23 02:36:19;;;;;;;1.05;1.05;;;;;;;;;;7405887;19;20140;-88
2023/05/23 02:38:46;;;;;;;1.02;1.02;;;;;;;;;;7403539;19;20152;-91
2023/05/23 02:41:12;;;;;;;1.40;1.30;;;;;;;;;;7404074;19;20148;-91
2023/05/23 02:43:39;;;;;;;0.90;0.90;;;;;;;;;;7403647;19;20151;-90
2023/05/23 02:46:06;;;;;;;2.05;1.70;;;;;;;;;;7401992;19;20137;-92
2023/05/23 02:48:32;;;;;;;1.50;1.40;;;;;;;;;;7403302;19;20176;-91
2023/05/23 02:50:59;;;;;;;1.38;1.33;;;;;;;;;;7408107;19;20152;-91
2023/05/23 02:53:26;;;;;;;1.10;1.10;;;;;;;;;;7402355;19;20152;-91
2023/05/23 02:55:53;;;;;;;1.15;1.15;;;;;;;;;;7402643;19;20133;-90
2023/05/23 02:58:19;;;;;;;3.67;1.27;;;;;;;;;;7400824;19;20175;-91
2023/05/23 03:00:46;;;;;;;0.73;0.73;;;;;;;;;;7404915;19;20152;-89
2023/05/23 03:03:12;;;;;;;0.98;0.98;;;;;;;;;;7404321;19;20526;-90
2023/05/23 03:05:39;;;;;;;0.77;0.77;;;;;;;;;;7401653;19;20143;-90
2023/05/23 03:08:06;;;;;;;0.85;0.85;;;;;;;;;;7402948;19;20157;-91
2023/05/23 03:10:33;;;;;;;1.02;0.98;;;;;;;;;;7403109;19;20543;-91
2023/05/23 03:13:00;;;;;;;1.30;1.20;;;;;;;;;;7400700;19;20132;-90
2023/05/23 03:15:27;;;;;;;1.92;1.83;;;;;;;;;;7399657;19;20501;-90
2023/05/23 03:17:54;;;;;;;1.33;1.23;;;;;;;;;;7397054;19;20140;-90
2023/05/23 03:20:20;;;;;;;1.60;1.48;;;;;;;;;;7399156;19;20140;-90
2023/05/23 03:22:47;;;;;;;1.52;1.42;;;;;;;;;;7399365;19;20627;-90
2023/05/23 03:25:15;;;;;;;0.90;0.90;;;;;;;;;;7400301;19;20148;-90
2023/05/23 03:27:42;;;;;;;1.45;1.35;;;;;;;;;;7393648;19;20151;-90
2023/05/23 03:30:15;;;;;;;1.15;1.13;;;;;;;;;;7398862;19;20143;-90
2023/05/23 03:32:50;;;;;;;1.58;1.45;;;;;;;;;;7398217;19;20133;-92
2023/05/23 03:36:44;;;;;;;1.02;1.02;;;;;;;;;;7401418;19;20129;-90
2023/05/23 03:39:19;;;;;;;0.70;0.70;;;;;;;;;;7397458;19;20533;-90
2023/05/23 03:42:07;;;;;;;0.68;0.68;;;;;;;;;;7398211;19;20144;-89
2023/05/23 03:44:33;;;;;;;0.75;0.75;;;;;;;;;;7394534;19;20145;-90
2023/05/23 03:47:00;;;;;;;2.15;1.08;;;;;;;;;;7401183;19;20148;-89
2023/05/23 03:49:48;;;;;;;1.00;0.98;;;;;;;;;;7397273;19;20156;-90
2023/05/23 03:52:14;;;;;;;1.10;0.98;;;;;;;;;;7396636;19;20503;-90
2023/05/23 03:54:41;;;;;;;1.05;0.98;;;;;;;;;;7401893;19;20133;-90
2023/05/23 03:57:08;;;;;;;0.88;0.88;;;;;;;;;;7399477;19;20125;-91
2023/05/23 03:59:35;;;;;;;0.98;0.98;;;;;;;;;;7397915;19;20191;-90
2023/05/23 04:02:01;;;;;;;1.20;1.20;;;;;;;;;;7400157;19;20152;-90
2023/05/23 04:04:28;;;;;;;1.77;1.67;;;;;;;;;;7397603;19;20167;-91
2023/05/23 04:06:55;;;;;;;1.05;1.05;;;;;;;;;;7396120;19;20148;-91
2023/05/23 04:09:22;;;;;;;1.02;1.02;;;;;;;;;;7400255;19;20161;-90
2023/05/23 04:11:48;;;;;;;2.08;0.88;;;;;;;;;;7401171;19;20149;-91
2023/05/23 04:14:16;;;;;;;1.77;1.40;;;;;;;;;;7403026;19;20761;-91
2023/05/23 04:16:43;;;;;;;0.82;0.80;;;;;;;;;;7402116;19;20645;-88
2023/05/23 04:19:11;;;;;;;1.30;1.30;;;;;;;;;;7400632;19;20153;-88
2023/05/23 04:21:37;;;;;;;1.23;1.13;;;;;;;;;;7403275;19;20153;-88
2023/05/23 04:24:05;;;;;;;1.42;1.33;;;;;;;;;;7404736;19;20152;-87
2023/05/23 04:26:31;;;;;;;0.98;0.98;;;;;;;;;;7402677;19;20804;-88
2023/05/23 04:28:59;;;;;;;0.93;0.93;;;;;;;;;;7400873;19;20153;-88
2023/05/23 04:31:25;;;;;;;1.48;1.38;;;;;;;;;;7403798;19;20148;-87
2023/05/23 04:33:52;;;;;;;0.70;0.70;;;;;;;;;;7407770;19;20144;-86
2023/05/23 04:36:19;;;;;;;1.25;1.25;;;;;;;;;;7415455;19;20145;-87
2023/05/23 04:38:45;;;;;;;3.08;2.50;;;;;;;;;;7418140;19;20182;-89
2023/05/23 04:41:15;;;;;;;2.03;1.92;;;;;;;;;;7414461;19;20141;-88
2023/05/23 04:43:41;;;;;;;4.38;1.90;;;;;;;;;;7410570;19;20141;-89
2023/05/23 04:46:09;;;;;;;1.67;1.55;;;;;;;;;;7409240;19;20241;-89
2023/05/23 04:48:37;;;;;;;1.83;1.33;;;;;;;;;;7410439;19;20175;-88
2023/05/23 04:51:07;;;;;;;1.58;1.52;;;;;;;;;;7411609;19;20145;-89
2023/05/23 04:53:35;;;;;;;1.17;1.08;;;;;;;;;;7410278;19;20200;-89
2023/05/23 04:56:03;;;;;;;1.17;1.17;;;;;;;;;;7406230;19;20133;-88
2023/05/23 04:58:41;;;;;;;1.27;1.20;;;;;;;;;;7406183;19;20176;-89
2023/05/23 05:01:08;;;;;;;1.75;1.65;;;;;;;;;;7412879;19;20160;-88
2023/05/23 05:03:35;;;;;;;3.28;1.38;;;;;;;;;;7411930;19;20164;-90
2023/05/23 05:06:02;;;;;;;1.33;1.33;;;;;;;;;;7410992;19;20144;-88
2023/05/23 05:08:30;;;;;;;1.92;1.83;;;;;;;;;;7409881;19;20739;-93
2023/05/23 05:10:57;;;;;;;2.05;1.95;;;;;;;;;;7408025;19;20208;-88
2023/05/23 05:13:23;;;;;;;1.30;1.23;;;;;;;;;;7409200;19;20160;-90
2023/05/23 05:15:51;;;;;;;1.40;1.40;;;;;;;;;;7408066;19;20133;-88
2023/05/23 05:18:18;;;;;;;3.47;1.90;;;;;;;;;;7411154;19;20175;-89
2023/05/23 05:20:45;;;;;;;1.67;1.58;;;;;;;;;;7413436;19;20700;-88
2023/05/23 05:23:11;;;;;;;1.38;1.30;;;;;;;;;;7414770;19;20155;-88
2023/05/23 05:25:40;;;;;;;2.28;1.17;;;;;;;;;;7402400;19;20165;-89
2023/05/23 05:28:11;;;;;;;2.05;1.65;;;;;;;;;;7412823;19;20168;-88
2023/05/23 05:30:37;;;;;;;0.95;0.95;;;;;;;;;;7417486;19;20145;-88
2023/05/23 05:33:06;;;;;;;1.52;1.05;;;;;;;;;;7409007;19;20239;-89
2023/05/23 05:35:33;;;;;;;1.65;1.55;;;;;;;;;;7397361;19;20143;-90
2023/05/23 05:38:03;;;;;;;1.02;0.98;;;;;;;;;;7399120;19;20149;-91
2023/05/23 05:40:33;;;;;;;1.60;1.45;;;;;;;;;;7401249;19;20158;-91
2023/05/23 05:43:00;;;;;;;1.15;1.15;;;;;;;;;;7394198;19;20205;-90
2023/05/23 05:45:27;;;;;;;1.05;1.05;;;;;;;;;;7399658;19;20145;-88
2023/05/23 05:47:54;;;;;;;1.52;1.33;;;;;;;;;;7393354;19;20196;-91
2023/05/23 05:50:21;;;;;;;1.48;1.30;;;;;;;;;;7385477;19;20144;-90
2023/05/23 05:52:48;;;;;;;1.10;0.85;;;;;;;;;;7391770;19;20147;-90
2023/05/23 05:55:15;;;;;;;2.00;1.35;;;;;;;;;;7391946;19;20151;-90
2023/05/23 05:57:42;;;;;;;1.67;1.40;;;;;;;;;;7394819;19;20173;-90
2023/05/23 06:00:14;;;;;;;2.30;1.88;;;;;;;;;;7394625;19;20637;-87
2023/05/23 06:02:46;;;;;;;2.10;1.27;;;;;;;;;;7401755;19;20156;-87
2023/05/23 06:05:15;;;;;;;1.25;1.15;;;;;;;;;;7404418;19;20153;-87
2023/05/23 06:07:42;;;;;;;1.30;1.30;;;;;;;;;;7403850;19;20144;-87
2023/05/23 06:10:12;;;;;;;1.73;1.63;;;;;;;;;;7407944;19;20158;-87
2023/05/23 06:12:39;;;;;;;1.58;1.50;;;;;;;;;;7407874;19;20164;-88
2023/05/23 06:15:06;;;;;;;1.80;1.70;;;;;;;;;;7407880;19;20506;-87
2023/05/23 06:17:33;;;;;;;1.67;1.58;;;;;;;;;;7407536;19;20794;-88
2023/05/23 06:20:00;;;;;;;1.33;1.23;;;;;;;;;;7404650;19;20160;-87
2023/05/23 06:22:26;;;;;;;1.15;1.13;;;;;;;;;;7403963;19;20713;-89
2023/05/23 06:24:53;;;;;;;1.00;0.98;;;;;;;;;;7402980;19;20151;-88
2023/05/23 06:27:20;;;;;;;1.02;1.02;;;;;;;;;;7404890;19;20173;-87
2023/05/23 06:29:47;;;;;;;0.73;0.73;;;;;;;;;;7393556;19;20155;-87
2023/05/23 06:32:13;;;;;;;1.10;1.10;;;;;;;;;;7400595;19;20622;-87
2023/05/23 06:34:40;;;;;;;1.80;1.70;;;;;;;;;;7402670;19;20193;-88
2023/05/23 06:41:32;;;;;;;0.85;0.85;;;;;;;;;;7402699;19;20628;-87
2023/05/23 06:44:10;;;;;;;2.20;1.75;;;;;;;;;;7399594;19;20518;-88
2023/05/23 06:46:39;;;;;;;1.50;1.42;;;;;;;;;;7402231;19;20145;-88
2023/05/23 06:49:06;;;;;;;1.73;1.63;;;;;;;;;;7402335;19;20164;-89
2023/05/23 06:51:38;;;;;;;1.67;1.60;;;;;;;;;;7410026;19;20173;-88
2023/05/23 06:54:05;;;;;;;1.73;1.63;;;;;;;;;;7417504;19;20137;-87
2023/05/23 06:56:32;;;;;;;1.77;1.67;;;;;;;;;;7423166;19;20137;-87
2023/05/23 06:58:58;;;;;;;1.65;1.55;;;;;;;;;;7420432;19;20177;-88
2023/05/23 07:01:25;;;;;;;1.70;1.60;;;;;;;;;;7404812;19;20166;-89
2023/05/23 07:03:52;;;;;;;1.65;1.55;;;;;;;;;;7399184;19;20137;-88
2023/05/23 07:06:19;;;;;;;2.00;1.73;;;;;;;;;;7392165;19;20597;-89
2023/05/23 07:08:45;;;;;;;1.70;1.60;;;;;;;;;;7395365;19;20173;-89
2023/05/23 07:11:12;;;;;;;2.17;1.88;;;;;;;;;;7400286;19;20141;-90
2023/05/23 07:13:39;;;;;;;2.42;2.08;;;;;;;;;;7391158;19;20145;-90
2023/05/23 07:16:05;;;;;;;1.35;1.33;;;;;;;;;;7391489;19;20498;-89
2023/05/23 07:18:32;;;;;;;2.67;2.38;;;;;;;;;;7390855;19;20175;-90
2023/05/23 07:21:03;;;;;;;1.42;1.35;;;;;;;;;;7391419;19;20137;-89
2023/05/23 07:23:35;;;;;;;1.85;1.75;;;;;;;;;;7392483;19;20136;-87
2023/05/23 07:26:02;;;;;;;2.17;2.00;;;;;;;;;;7392585;19;20225;-89
2023/05/23 07:28:29;;;;;;;1.60;1.48;;;;;;;;;;7396651;19;20234;-86
2023/05/23 07:30:57;;;;;;;1.70;1.60;;;;;;;;;;7400354;19;20143;-89
2023/05/23 07:33:24;;;;;;;1.23;1.05;;;;;;;;;;7396707;19;20179;-88
2023/05/23 07:35:51;;;;;;;1.70;1.60;;;;;;;;;;7413580;19;20157;-89
2023/05/23 07:38:17;;;;;;;1.50;1.40;;;;;;;;;;7416553;19;20162;-87
2023/05/23 07:40:47;;;;;;;1.60;1.50;;;;;;;;;;7412494;19;20156;-87
2023/05/23 07:43:32;;;;;;;2.40;2.20;;;;;;;;;;7419719;19;20159;-89
2023/05/23 07:45:59;;;;;;;2.58;2.38;;;;;;;;;;7414032;19;20144;-87
2023/05/23 07:48:26;;;;;;;1.92;1.83;;;;;;;;;;7424311;19;20166;-86
2023/05/23 07:50:54;;;;;;;1.40;1.40;;;;;;;;;;7422286;19;20141;-91
2023/05/23 07:53:21;;;;;;;2.00;1.90;;;;;;;;;;7422927;19;20152;-91
2023/05/23 07:55:48;;;;;;;2.17;2.08;;;;;;;;;;7407115;19;20506;-91
2023/05/23 07:58:15;;;;;;;1.98;1.50;;;;;;;;;;7397810;19;20165;-92
2023/05/23 08:00:43;;;;;;;1.83;1.73;;;;;;;;;;7401790;19;20155;-90
2023/05/23 08:03:10;;;;;;;1.20;1.20;;;;;;;;;;7404313;19;20145;-88
2023/05/23 08:05:37;;;;;;;1.10;1.10;;;;;;;;;;7404098;19;20148;-89
2023/05/23 08:08:04;;;;;;;1.85;1.20;;;;;;;;;;7403843;19;20137;-88
2023/05/23 08:10:31;;;;;;;1.85;1.20;;;;;;;;;;7403029;19;20145;-89
2023/05/23 08:12:59;;;;;;;3.13;1.60;;;;;;;;;;7404166;19;20144;-88
2023/05/23 08:15:27;;;;;;;2.10;1.73;;;;;;;;;;7403218;19;20149;-88
2023/05/23 08:17:55;;;;;;;4.15;2.03;;;;;;;;;;7402086;19;20132;-89
2023/05/23 08:20:29;;;;;;;3.13;2.83;;;;;;;;;;7407276;19;20143;-89
2023/05/23 08:24:01;;;;;;;2.50;1.77;;;;;;;;;;7402350;19;20113;-90
2023/05/23 08:26:33;;;;;;;1.63;1.50;;;;;;;;;;7400508;19;20249;-88
2023/05/23 08:29:01;;;;;;;2.20;2.08;;;;;;;;;;7399014;19;20560;-88
2023/05/23 08:31:28;;;;;;;2.85;2.20;;;;;;;;;;7401688;19;20176;-89
2023/05/23 08:33:56;;;;;;;2.03;1.92;;;;;;;;;;7401061;19;20614;-90
2023/05/23 08:36:23;;;;;;;2.28;2.08;;;;;;;;;;7402993;19;20136;-89
2023/05/23 08:38:50;;;;;;;2.65;1.60;;;;;;;;;;7400994;19;20227;-90
2023/05/23 08:41:23;;;;;;;4.20;1.50;;;;;;;;;;7396016;19;20208;-88
2023/05/23 08:43:50;;;;;;;2.47;2.28;;;;;;;;;;7400391;19;20137;-89
2023/05/23 08:46:17;;;;;;;1.40;1.38;;;;;;;;;;7398860;19;20149;-89
2023/05/23 08:48:51;;;;;;;2.08;1.95;;;;;;;;;;7386456;19;20192;-88
2023/05/23 08:51:24;;;;;;;1.55;1.45;;;;;;;;;;7390810;19;20159;-88
2023/05/23 08:53:52;;;;;;;3.63;3.35;;;;;;;;;;7390624;19;20144;-89
2023/05/23 08:56:19;;;;;;;1.60;1.50;;;;;;;;;;7391473;19;20154;-88
2023/05/23 08:58:47;;;;;;;1.45;1.35;;;;;;;;;;7389680;19;20196;-89
2023/05/23 09:01:17;;;;;;;2.00;1.90;;;;;;;;;;7397614;19;20185;-89
2023/05/23 09:03:43;;;;;;;1.98;1.88;;;;;;;;;;7397612;19;20137;-89
2023/05/23 09:06:10;;;;;;;2.17;2.08;;;;;;;;;;7395032;19;20151;-88
2023/05/23 09:08:37;;;;;;;2.80;2.60;;;;;;;;;;7396445;19;20145;-88
2023/05/23 09:11:05;;;;;;;2.00;1.67;;;;;;;;;;7396632;19;20204;-88
2023/05/23 09:13:32;;;;;;;2.38;2.17;;;;;;;;;;7394297;19;20147;-88
2023/05/23 09:16:03;;;;;;;2.03;1.90;;;;;;;;;;7397313;19;20130;-88
2023/05/23 09:18:38;;;;;;;2.22;1.90;;;;;;;;;;7404574;19;20169;-88
2023/05/23 09:21:07;;;;;;;2.17;1.98;;;;;;;;;;7407603;19;20137;-90
2023/05/23 09:23:35;;;;;;;2.25;2.03;;;;;;;;;;7401577;19;20148;-88
2023/05/23 09:26:06;;;;;;;2.28;2.17;;;;;;;;;;7405032;19;20155;-87
2023/05/23 09:28:34;;;;;;;2.40;1.33;;;;;;;;;;7404614;19;20153;-89
2023/05/23 09:31:02;;;;;;;3.22;2.92;;;;;;;;;;7407151;19;20145;-89
2023/05/23 09:33:49;;;;;;;1.45;1.38;;;;;;;;;;7406164;19;20136;-88
2023/05/23 09:36:16;;;;;;;3.38;2.45;;;;;;;;;;7400880;19;20155;-88
2023/05/23 09:38:45;;;;;;;1.90;1.80;;;;;;;;;;7402645;19;20176;-88
2023/05/23 09:41:12;;;;;;;1.70;1.60;;;;;;;;;;7405186;19;20189;-89
2023/05/23 09:43:48;;;;;;;1.60;1.52;;;;;;;;;;7402922;19;20145;-89
2023/05/23 09:46:14;;;;;;;3.15;1.95;;;;;;;;;;7396334;19;20147;-88
2023/05/23 09:48:50;;;;;;;2.88;2.50;;;;;;;;;;7402153;19;20171;-88
2023/05/23 09:51:22;;;;;;;3.72;1.83;;;;;;;;;;7406284;19;20137;-88
2023/05/23 09:53:49;;;;;;;2.40;2.20;;;;;;;;;;7406214;19;20149;-89
2023/05/23 09:56:17;;;;;;;2.08;1.88;;;;;;;;;;7398517;19;20597;-89
2023/05/23 09:58:47;;;;;;;2.15;2.05;;;;;;;;;;7401404;19;20681;-89
2023/05/23 10:01:14;;;;;;;1.27;1.17;;;;;;;;;;7405114;19;20155;-88
2023/05/23 10:03:48;;;;;;;1.08;1.08;;;;;;;;;;7402810;19;20141;-89
2023/05/23 10:06:41;;;;;;;3.33;1.77;;;;;;;;;;7404614;19;20141;-88
2023/05/23 10:09:14;;;;;;;3.22;2.95;;;;;;;;;;7405041;19;20167;-90
2023/05/23 10:12:19;;;;;;;2.55;2.35;;;;;;;;;;7406173;19;20149;-91
2023/05/23 10:14:51;;;;;;;1.85;1.75;;;;;;;;;;7403718;19;20555;-88
2023/05/23 10:17:21;;;;;;;1.60;1.50;;;;;;;;;;7406302;19;20133;-89
2023/05/23 10:20:01;;;;;;;2.00;1.85;;;;;;;;;;7403566;19;20192;-88
2023/05/23 10:22:28;;;;;;;2.55;2.35;;;;;;;;;;7404564;19;20144;-89
2023/05/23 10:24:55;;;;;;;1.83;1.50;;;;;;;;;;7406138;19;20188;-87
2023/05/23 10:27:22;;;;;;;2.33;1.90;;;;;;;;;;7404628;19;20145;-89
2023/05/23 10:29:48;;;;;;;1.75;1.65;;;;;;;;;;7403042;19;20169;-88
2023/05/23 10:32:15;;;;;;;1.33;1.23;;;;;;;;;;7403114;19;20129;-88
2023/05/23 10:35:02;;;;;;;1.90;1.67;;;;;;;;;;7407520;19;20208;-89
2023/05/23 10:37:44;;;;;;;3.08;1.95;;;;;;;;;;7407270;19;20209;-88
2023/05/23 10:40:25;;;;;;;2.30;2.13;;;;;;;;;;7403670;19;20156;-90
2023/05/23 10:43:03;;;;;;;1.85;1.65;;;;;;;;;;7405079;19;20137;-88
2023/05/23 10:45:29;;;;;;;2.15;2.05;;;;;;;;;;7406050;19;20151;-88
2023/05/23 10:47:58;;;;;;;2.45;2.22;;;;;;;;;;7403586;19;20137;-88
2023/05/23 10:50:33;;;;;;;1.92;1.83;;;;;;;;;;7404527;19;20136;-89
2023/05/23 10:53:02;;;;;;;1.55;1.50;;;;;;;;;;7403728;19;20624;-89
2023/05/23 10:55:33;;;;;;;2.08;1.88;;;;;;;;;;7406441;19;20145;-88
2023/05/23 10:58:19;;;;;;;1.55;1.55;;;;;;;;;;7401497;19;20581;-89
2023/05/23 11:00:53;;;;;;;3.17;1.83;;;;;;;;;;7405264;19;20177;-89
2023/05/23 11:03:46;;;;;;;1.88;1.77;;;;;;;;;;7404068;19;20139;-89
2023/05/23 11:06:39;;;;;;;1.75;1.65;;;;;;;;;;7400567;19;20159;-89
2023/05/23 11:09:12;;;;;;;1.52;1.38;;;;;;;;;;7405706;19;20157;-87
2023/05/23 11:11:47;;;;;;;1.05;1.05;;;;;;;;;;7400150;19;20224;-89
2023/05/23 11:14:14;;;;;;;1.92;1.83;;;;;;;;;;7401455;19;20161;-88
2023/05/23 11:16:43;;;;;;;2.20;2.00;;;;;;;;;;7401662;19;20524;-88
2023/05/23 11:19:19;;;;;;;1.90;1.73;;;;;;;;;;7397405;19;20169;-88
2023/05/23 11:21:57;;;;;;;2.45;2.22;;;;;;;;;;7400706;19;20723;-88
2023/05/23 11:24:47;;;;;;;1.75;1.65;;;;;;;;;;7401654;19;20149;-88
2023/05/23 11:27:13;;;;;;;2.42;2.20;;;;;;;;;;7399974;19;20188;-88
2023/05/23 11:29:40;;;;;;;2.42;1.63;;;;;;;;;;7398132;19;20204;-88
2023/05/23 11:32:11;;;;;;;1.92;1.83;;;;;;;;;;7400310;19;20145;-88
2023/05/23 11:34:43;;;;;;;2.45;2.25;;;;;;;;;;7399273;19;20141;-88
2023/05/23 11:37:10;;;;;;;1.58;1.48;;;;;;;;;;7398547;19;20140;-87
2023/05/23 11:39:39;;;;;;;2.65;2.28;;;;;;;;;;7400684;19;20227;-87
2023/05/23 11:42:06;;;;;;;1.58;1.48;;;;;;;;;;7400984;19;20530;-87
2023/05/23 11:44:32;;;;;;;1.73;1.63;;;;;;;;;;7406297;19;20143;-88
2023/05/23 11:47:05;;;;;;;1.77;1.70;;;;;;;;;;7402956;19;20497;-87
2023/05/23 11:49:39;;;;;;;2.25;2.10;;;;;;;;;;7402158;19;20617;-87
2023/05/23 11:52:06;;;;;;;1.80;1.70;;;;;;;;;;7403024;19;20629;-87
2023/05/23 11:54:33;;;;;;;1.45;1.38;;;;;;;;;;7401074;19;20204;-87
2023/05/23 11:57:01;;;;;;;2.38;2.25;;;;;;;;;;7404472;19;20141;-87
2023/05/23 11:59:28;;;;;;;1.45;1.40;;;;;;;;;;7402063;19;20159;-87
2023/05/23 12:01:55;;;;;;;1.50;1.40;;;;;;;;;;7404084;19;20165;-88
2023/05/23 12:04:21;;;;;;;2.35;1.70;;;;;;;;;;7406598;19;20141;-88
2023/05/23 12:07:08;;;;;;;1.55;1.48;;;;;;;;;;7399818;19;20140;-87
2023/05/23 12:10:16;;;;;;;2.53;2.33;;;;;;;;;;7396342;19;20183;-89
2023/05/23 12:12:44;;;;;;;2.38;2.28;;;;;;;;;;7402136;19;20605;-87
2023/05/23 12:15:16;;;;;;;2.78;2.45;;;;;;;;;;7399481;19;20144;-87
2023/05/23 12:17:46;;;;;;;1.30;1.27;;;;;;;;;;7400923;19;20470;-88
2023/05/23 12:20:13;;;;;;;2.97;2.78;;;;;;;;;;7400944;19;20136;-88
2023/05/23 12:22:41;;;;;;;2.97;2.53;;;;;;;;;;7402131;19;20141;-88
2023/05/23 12:25:10;;;;;;;1.88;1.77;;;;;;;;;;7398933;19;20140;-87
2023/05/23 12:27:40;;;;;;;2.70;2.47;;;;;;;;;;7395949;19;20148;-88
2023/05/23 12:30:15;;;;;;;2.47;2.38;;;;;;;;;;7396856;19;20584;-88
2023/05/23 12:32:44;;;;;;;1.95;1.85;;;;;;;;;;7397173;19;20494;-88
2023/05/23 12:35:13;;;;;;;2.35;2.17;;;;;;;;;;7402115;19;20168;-87
2023/05/23 12:37:41;;;;;;;5.05;3.13;;;;;;;;;;7410530;19;20145;-86
2023/05/23 12:40:15;;;;;;;2.97;2.75;;;;;;;;;;7412671;19;20156;-86
2023/05/23 12:42:53;;;;;;;1.60;1.50;;;;;;;;;;7411956;19;20140;-87
2023/05/23 12:45:26;;;;;;;3.83;2.63;;;;;;;;;;7406565;19;20220;-87
2023/05/23 12:47:52;;;;;;;3.67;2.65;;;;;;;;;;7403657;19;20578;-86
2023/05/23 12:50:27;;;;;;;2.05;1.83;;;;;;;;;;7397295;19;20197;-87
2023/05/23 12:52:54;;;;;;;2.10;2.00;;;;;;;;;;7398461;19;20196;-87
2023/05/23 12:55:24;;;;;;;2.38;2.20;;;;;;;;;;7399925;19;20147;-88
2023/05/23 12:57:52;;;;;;;2.55;2.35;;;;;;;;;;7403326;19;20151;-87
2023/05/23 13:00:20;;;;;;;1.83;1.73;;;;;;;;;;7407568;19;20159;-88
2023/05/23 13:02:48;;;;;;;3.10;2.90;;;;;;;;;;7406729;19;20145;-87
2023/05/23 13:05:14;;;;;;;1.90;1.48;;;;;;;;;;7405816;19;20160;-86
2023/05/23 13:07:41;;;;;;;2.35;1.83;;;;;;;;;;7404070;19;20164;-86
2023/05/23 13:10:08;;;;;;;6.00;2.75;;;;;;;;;;7405460;19;20167;-86
2023/05/23 13:12:35;;;;;;;1.20;1.20;;;;;;;;;;7409669;19;20144;-87
2023/05/23 13:15:03;;;;;;;1.55;1.45;;;;;;;;;;7411479;19;20662;-86
2023/05/23 13:17:29;;;;;;;1.90;1.80;;;;;;;;;;7409988;19;20149;-87
2023/05/23 13:19:56;;;;;;;2.08;1.98;;;;;;;;;;7404977;19;20177;-87
2023/05/23 13:22:23;;;;;;;1.83;1.73;;;;;;;;;;7407547;19;20141;-87
2023/05/23 13:24:49;;;;;;;3.40;2.05;;;;;;;;;;7407714;19;20145;-87
2023/05/23 13:27:17;;;;;;;3.38;2.13;;;;;;;;;;7405664;19;20585;-87
2023/05/23 13:29:43;;;;;;;3.38;1.98;;;;;;;;;;7405042;19;20176;-87
2023/05/23 13:32:10;;;;;;;2.05;1.85;;;;;;;;;;7406298;19;20148;-87
2023/05/23 13:34:37;;;;;;;2.15;1.95;;;;;;;;;;7410531;19;20200;-86
2023/05/23 13:37:04;;;;;;;2.60;1.92;;;;;;;;;;7411596;19;20147;-86
2023/05/23 13:39:31;;;;;;;1.92;1.67;;;;;;;;;;7409708;19;20179;-86
2023/05/23 13:41:57;;;;;;;0.80;0.80;;;;;;;;;;7404480;19;20139;-86
2023/05/23 13:44:24;;;;;;;1.20;1.20;;;;;;;;;;7403682;19;20141;-87
2023/05/23 13:46:50;;;;;;;1.27;1.27;;;;;;;;;;7403252;19;20139;-87
2023/05/23 13:49:17;;;;;;;2.70;2.17;;;;;;;;;;7404222;19;20533;-88
2023/05/23 13:51:44;;;;;;;1.27;1.13;;;;;;;;;;7409218;19;20129;-87
2023/05/23 13:54:12;;;;;;;1.80;1.70;;;;;;;;;;7411907;19;20622;-87
2023/05/23 13:56:39;;;;;;;1.73;1.63;;;;;;;;;;7410675;19;20133;-86
2023/05/23 13:59:05;;;;;;;0.98;0.98;;;;;;;;;;7409701;19;20196;-88
2023/05/23 14:01:32;;;;;;;1.55;1.45;;;;;;;;;;7408353;19;20144;-87
2023/05/23 14:03:59;;;;;;;1.50;1.33;;;;;;;;;;7411760;19;20236;-87
2023/05/23 14:06:26;;;;;;;2.53;1.27;;;;;;;;;;7407833;19;20152;-87
2023/05/23 14:08:52;;;;;;;1.67;1.58;;;;;;;;;;7406349;19;20179;-87
2023/05/23 14:11:19;;;;;;;2.05;1.23;;;;;;;;;;7410925;19;20518;-88
2023/05/23 14:13:45;;;;;;;1.23;0.93;;;;;;;;;;7404021;19;20490;-87
2023/05/23 14:16:12;;;;;;;1.33;1.27;;;;;;;;;;7403632;19;20386;-87
2023/05/23 14:18:39;;;;;;;1.33;1.25;;;;;;;;;;7402217;19;20169;-87
2023/05/23 14:21:05;;;;;;;1.55;1.45;;;;;;;;;;7406580;19;20483;-87
2023/05/23 14:23:32;;;;;;;2.22;1.63;;;;;;;;;;7409657;19;20121;-87
2023/05/23 14:25:59;;;;;;;2.00;1.90;;;;;;;;;;7407228;19;20509;-87
2023/05/23 14:28:26;;;;;;;2.08;1.38;;;;;;;;;;7407260;19;20172;-88
2023/05/23 14:30:54;;;;;;;1.25;1.25;;;;;;;;;;7409021;19;20133;-87
2023/05/23 14:33:21;;;;;;;1.67;1.58;;;;;;;;;;7409704;19;20141;-88
2023/05/23 14:35:48;;;;;;;3.95;1.60;;;;;;;;;;7408968;19;20155;-87
2023/05/23 14:38:15;;;;;;;2.17;2.08;;;;;;;;;;7405813;19;20156;-87
2023/05/23 14:40:41;;;;;;;0.80;0.80;;;;;;;;;;7402756;19;20125;-88
2023/05/23 14:43:10;;;;;;;1.80;1.45;;;;;;;;;;7403382;19;20144;-88
2023/05/23 14:45:37;;;;;;;1.27;1.25;;;;;;;;;;7404971;19;20589;-88
2023/05/23 14:48:04;;;;;;;1.10;1.10;;;;;;;;;;7403158;19;20137;-87
2023/05/23 14:50:31;;;;;;;1.50;1.40;;;;;;;;;;7404996;19;20149;-87
2023/05/23 14:52:58;;;;;;;1.83;1.42;;;;;;;;;;7401974;19;20645;-87
2023/05/23 14:55:25;;;;;;;2.22;2.13;;;;;;;;;;7399414;19;20141;-88
2023/05/23 14:57:52;;;;;;;1.13;1.08;;;;;;;;;;7405183;19;20486;-87
2023/05/23 15:00:19;;;;;;;1.50;1.38;;;;;;;;;;7403747;19;20208;-87
2023/05/23 15:02:46;;;;;;;0.95;0.93;;;;;;;;;;7404936;19;20136;-88